Time;durP1;ratioP1;P1;durP2;ratioP2;P2;SDS_P1;SDS_P2;PMS_P1;PMS_P2;Temp;Humidity;BMP_temperature;BMP_pressure;BME280_temperature;BME280_humidity;BME280_pressure;Samples;Min_cycle;Max_cycle;Signal;HPM_P1;HPM_P2
2023/10/14 00:01:04;;;;;;;25.25;13.10;;;;;;;19.81;86.95;99389.50;5064936;28;20080;-82
2023/10/14 00:03:33;;;;;;;19.73;12.68;;;;;;;19.74;87.67;99383.56;5068656;28;20047;-80
2023/10/14 00:06:05;;;;;;;18.52;12.88;;;;;;;19.72;88.17;99393.63;5070709;28;20100;-82
2023/10/14 00:08:33;;;;;;;21.98;12.50;;;;;;;19.72;88.01;99388.31;5075251;28;20052;-81
2023/10/14 00:11:05;;;;;;;20.33;13.20;;;;;;;19.73;87.85;99392.56;5073771;28;20522;-79
2023/10/14 00:13:36;;;;;;;15.47;11.77;;;;;;;19.71;87.58;99392.00;5072602;28;20472;-79
2023/10/14 00:16:10;;;;;;;21.85;12.13;;;;;;;19.80;86.56;99382.56;5071205;28;20053;-80
2023/10/14 00:18:42;;;;;;;19.77;11.38;;;;;;;19.81;85.64;99377.03;5064931;28;20132;-80
2023/10/14 00:21:11;;;;;;;21.65;10.77;;;;;;;19.77;86.39;99375.91;5066274;28;20049;-81
2023/10/14 00:23:38;;;;;;;20.33;12.07;;;;;;;19.77;86.33;99388.38;5064265;28;20139;-81
2023/10/14 00:26:13;;;;;;;15.25;10.38;;;;;;;19.75;85.97;99377.19;5066158;28;20079;-81
2023/10/14 00:28:41;;;;;;;16.73;10.38;;;;;;;19.78;86.25;99387.31;5065719;28;20044;-81
2023/10/14 00:31:10;;;;;;;20.35;11.32;;;;;;;19.42;90.84;99408.00;5065736;28;20079;-81
2023/10/14 00:33:38;;;;;;;19.08;10.45;;;;;;;19.19;92.33;99416.97;5059480;28;20048;-80
2023/10/14 00:36:10;;;;;;;22.67;11.60;;;;;;;18.95;94.72;99425.31;5063901;28;20084;-80
2023/10/14 00:38:38;;;;;;;15.10;10.40;;;;;;;18.94;94.19;99436.94;5059005;28;20044;-81
2023/10/14 00:41:08;;;;;;;19.98;9.95;;;;;;;18.88;94.40;99426.28;5064029;28;20049;-82
2023/10/14 00:43:35;;;;;;;18.08;10.10;;;;;;;18.84;94.71;99424.34;5060394;28;20045;-80
2023/10/14 00:46:07;;;;;;;19.75;9.60;;;;;;;18.88;94.29;99415.69;5063236;28;20041;-81
2023/10/14 00:48:40;;;;;;;17.27;9.98;;;;;;;18.92;93.99;99417.81;5063834;28;20127;-81
2023/10/14 00:51:10;;;;;;;23.83;10.10;;;;;;;18.95;92.90;99404.91;5060282;28;20460;-80
2023/10/14 00:53:39;;;;;;;14.27;9.40;;;;;;;18.90;93.33;99413.56;5061051;28;20056;-82
2023/10/14 00:56:10;;;;;;;17.15;9.57;;;;;;;18.86;93.62;99423.06;5071434;28;20041;-81
2023/10/14 00:58:47;;;;;;;17.80;9.45;;;;;;;18.94;93.78;99419.19;5056421;28;20041;-82
2023/10/14 01:01:17;;;;;;;22.88;10.63;;;;;;;18.94;93.75;99416.53;5065680;28;20088;-81
2023/10/14 01:03:48;;;;;;;20.50;10.25;;;;;;;18.91;94.07;99422.31;5059911;28;20053;-80
2023/10/14 01:06:23;;;;;;;20.63;10.20;;;;;;;18.85;94.35;99426.75;5063442;28;20392;-80
2023/10/14 01:08:52;;;;;;;14.65;10.05;;;;;;;18.88;94.82;99442.19;5054215;28;20056;-80
2023/10/14 01:11:18;;;;;;;16.98;10.07;;;;;;;18.83;95.88;99443.94;5056898;28;20057;-82
2023/10/14 01:13:45;;;;;;;22.40;10.82;;;;;;;18.69;96.37;99447.91;5061734;28;20087;-81
2023/10/14 01:16:13;;;;;;;15.23;10.05;;;;;;;18.77;95.95;99451.00;5058598;28;20056;-81
2023/10/14 01:18:41;;;;;;;16.80;9.80;;;;;;;18.77;96.01;99451.00;5058712;28;20588;-81
2023/10/14 01:21:09;;;;;;;19.10;9.90;;;;;;;18.81;95.28;99441.53;5062254;28;20061;-81
2023/10/14 01:23:38;;;;;;;17.17;9.02;;;;;;;18.80;94.91;99450.53;5060378;28;20045;-81
2023/10/14 01:26:06;;;;;;;15.00;10.50;;;;;;;18.71;95.71;99441.34;5061207;28;20140;-81
2023/10/14 01:28:33;;;;;;;17.02;10.02;;;;;;;18.67;96.58;99450.81;5064006;28;20112;-81
2023/10/14 01:31:30;;;;;;;15.73;9.18;;;;;;;18.57;97.51;99448.72;5063513;28;20049;-81
2023/10/14 01:33:57;;;;;;;15.40;8.88;;;;;;;18.47;98.91;99464.44;5059536;28;20083;-81
2023/10/14 01:36:27;;;;;;;18.70;10.68;;;;;;;18.19;100.00;99462.56;5066698;28;20045;-81
2023/10/14 01:38:59;;;;;;;16.73;9.52;;;;;;;18.11;100.00;99478.81;5066855;28;20610;-81
2023/10/14 01:41:29;;;;;;;13.20;9.23;;;;;;;17.99;100.00;99470.06;5064766;28;20052;-81
2023/10/14 01:43:57;;;;;;;15.45;8.75;;;;;;;17.97;100.00;99474.78;5057297;28;20103;-80
2023/10/14 01:46:27;;;;;;;17.67;8.65;;;;;;;17.90;100.00;99455.59;5062732;28;20079;-81
2023/10/14 01:49:00;;;;;;;16.92;8.70;;;;;;;17.86;100.00;99449.97;5057236;28;20422;-81
2023/10/14 01:51:33;;;;;;;16.33;7.45;;;;;;;17.91;100.00;99473.09;5061261;28;20049;-81
2023/10/14 01:54:02;;;;;;;14.40;8.13;;;;;;;17.84;100.00;99454.69;5066987;28;20053;-79
2023/10/14 01:56:30;;;;;;;15.18;7.10;;;;;;;17.81;100.00;99462.28;5076347;28;20041;-80
2023/10/14 01:58:58;;;;;;;18.63;8.07;;;;;;;17.68;100.00;99442.16;5064873;28;20048;-80
2023/10/14 02:01:24;;;;;;;13.23;7.60;;;;;;;17.63;100.00;99435.91;5072127;28;20128;-81
2023/10/14 02:03:51;;;;;;;10.88;6.85;;;;;;;17.58;100.00;99434.75;5072641;28;20053;-80
2023/10/14 02:06:20;;;;;;;13.50;6.68;;;;;;;17.64;100.00;99445.47;5072981;28;20072;-81
2023/10/14 02:08:47;;;;;;;14.50;6.68;;;;;;;17.59;100.00;99432.91;5072826;28;20048;-82
2023/10/14 02:11:20;;;;;;;19.63;7.28;;;;;;;17.51;100.00;99439.34;5074282;28;20139;-82
2023/10/14 02:13:53;;;;;;;11.60;5.82;;;;;;;17.56;100.00;99450.06;5072248;28;20110;-83
2023/10/14 02:16:24;;;;;;;10.35;5.70;;;;;;;17.58;100.00;99494.78;5069758;28;20048;-80
2023/10/14 02:18:51;;;;;;;13.90;7.18;;;;;;;17.40;100.00;99559.19;5062309;28;20056;-79
2023/10/14 02:21:18;;;;;;;15.02;6.10;;;;;;;16.90;100.00;99567.41;5058125;28;20144;-79
2023/10/14 02:23:45;;;;;;;8.20;4.57;;;;;;;16.64;100.00;99609.97;5055036;28;20064;-79
2023/10/14 02:26:22;;;;;;;3.10;1.85;;;;;;;15.91;100.00;99601.91;5060386;28;20045;-80
2023/10/14 02:28:52;;;;;;;3.20;1.70;;;;;;;15.63;100.00;99607.59;5059263;28;20057;-80
2023/10/14 02:31:28;;;;;;;2.40;1.35;;;;;;;15.46;100.00;99620.47;5059732;28;20127;-80
2023/10/14 02:33:55;;;;;;;2.42;1.08;;;;;;;15.22;100.00;99616.72;5063451;28;20109;-79
2023/10/14 02:36:27;;;;;;;2.25;1.13;;;;;;;15.11;100.00;99635.06;5058330;28;20049;-80
2023/10/14 02:38:54;;;;;;;2.72;1.00;;;;;;;14.95;100.00;99652.13;5061809;28;20049;-81
2023/10/14 02:41:26;;;;;;;1.58;0.73;;;;;;;14.87;100.00;99655.78;5063965;28;20531;-80
2023/10/14 02:44:01;;;;;;;2.53;1.10;;;;;;;14.84;100.00;99674.63;5063562;28;20103;-81
2023/10/14 02:46:28;;;;;;;1.15;0.82;;;;;;;14.71;100.00;99681.75;5067971;28;20045;-81
2023/10/14 02:48:55;;;;;;;0.52;0.52;;;;;;;14.77;100.00;99684.38;5070434;28;20077;-80
2023/10/14 02:51:29;;;;;;;0.98;0.68;;;;;;;14.68;100.00;99704.03;5073816;28;20055;-80
2023/10/14 02:54:03;;;;;;;4.05;1.95;;;;;;;14.74;100.00;99723.47;5067486;28;20079;-81
2023/10/14 02:56:45;;;;;;;3.70;2.55;;;;;;;14.67;100.00;99728.75;5063741;28;20045;-82
2023/10/14 02:59:15;;;;;;;3.28;1.85;;;;;;;14.70;100.00;99741.50;5069167;28;20060;-81
2023/10/14 03:01:43;;;;;;;2.38;0.90;;;;;;;14.69;100.00;99742.53;5063112;28;20049;-80
2023/10/14 03:04:12;;;;;;;4.20;1.98;;;;;;;14.76;100.00;99760.94;5068111;28;20041;-81
2023/10/14 03:06:46;;;;;;;2.58;1.63;;;;;;;14.82;100.00;99768.03;5068587;28;20072;-82
2023/10/14 03:09:17;;;;;;;1.92;1.40;;;;;;;14.83;100.00;99765.22;5065890;28;20044;-81
2023/10/14 03:11:47;;;;;;;3.22;1.25;;;;;;;14.82;100.00;99782.03;5067641;28;20052;-82
2023/10/14 03:14:14;;;;;;;3.85;1.15;;;;;;;14.85;100.00;99791.34;5065729;28;20045;-82
2023/10/14 03:16:41;;;;;;;1.30;1.05;;;;;;;14.74;100.00;99797.22;5065200;28;20139;-82
2023/10/14 03:19:08;;;;;;;2.35;1.15;;;;;;;14.74;100.00;99797.22;5067039;28;20044;-82
2023/10/14 03:21:35;;;;;;;2.03;0.95;;;;;;;14.75;100.00;99819.91;5062413;28;20076;-80
2023/10/14 03:24:03;;;;;;;1.13;1.02;;;;;;;14.70;100.00;99820.50;5060489;28;20127;-80
2023/10/14 03:26:32;;;;;;;1.20;0.63;;;;;;;14.74;100.00;99842.78;5061760;28;20109;-80
2023/10/14 03:29:12;;;;;;;1.08;1.00;;;;;;;14.70;100.00;99849.47;5054104;28;20048;-78
2023/10/14 03:31:39;;;;;;;3.20;0.82;;;;;;;14.69;100.00;99862.84;5060673;28;20051;-79
2023/10/14 03:34:10;;;;;;;3.22;1.00;;;;;;;14.68;100.00;99872.56;5059111;28;20052;-78
2023/10/14 03:36:39;;;;;;;3.83;1.98;;;;;;;14.29;100.00;99881.16;5061838;28;20522;-80
2023/10/14 03:39:21;;;;;;;5.20;2.90;;;;;;;14.06;100.00;99894.66;5063059;28;20060;-80
2023/10/14 03:41:52;;;;;;;7.88;2.95;;;;;;;13.89;100.00;99901.25;5063498;28;20054;-80
2023/10/14 03:44:22;;;;;;;7.20;3.25;;;;;;;13.73;100.00;99905.00;5063979;28;20049;-80
2023/10/14 03:46:59;;;;;;;10.85;2.75;;;;;;;13.73;100.00;99909.44;5065427;28;20052;-80
2023/10/14 03:49:26;;;;;;;9.18;2.58;;;;;;;13.68;100.00;99917.13;5065490;28;20076;-81
2023/10/14 03:51:56;;;;;;;5.88;2.65;;;;;;;13.69;100.00;99939.78;5063297;28;20045;-80
2023/10/14 03:54:26;;;;;;;7.97;3.95;;;;;;;13.71;100.00;99945.63;5063935;28;20052;-81
2023/10/14 03:56:52;;;;;;;8.35;3.33;;;;;;;13.76;100.00;99966.91;5063960;28;20053;-81
2023/10/14 03:59:22;;;;;;;9.63;3.78;;;;;;;13.71;100.00;100000.84;5064823;28;20071;-80
2023/10/14 04:01:54;;;;;;;10.77;3.42;;;;;;;13.40;100.00;99995.97;5063016;28;20438;-81
2023/10/14 04:07:12;;;;;;;13.50;3.55;;;;;;;13.01;100.00;100007.72;5058279;28;20057;-81
2023/10/14 04:09:40;;;;;;;10.45;3.55;;;;;;;12.91;100.00;100009.84;5059388;28;20056;-81
2023/10/14 04:12:09;;;;;;;14.18;3.78;;;;;;;12.91;100.00;100010.66;5055851;28;20538;-81
2023/10/14 04:14:37;;;;;;;13.80;3.75;;;;;;;12.96;100.00;100016.16;5050092;28;20080;-81
2023/10/14 04:17:18;;;;;;;17.30;4.20;;;;;;;12.98;100.00;100023.84;5045358;28;20469;-81
2023/10/14 04:19:53;;;;;;;16.08;4.05;;;;;;;13.11;100.00;100038.94;5052379;28;20045;-81
2023/10/14 04:22:32;;;;;;;15.82;3.80;;;;;;;12.98;100.00;100036.97;5045927;28;20052;-81
2023/10/14 04:25:15;;;;;;;14.40;4.20;;;;;;;13.05;100.00;100043.13;5042159;28;20056;-81
2023/10/14 04:27:55;;;;;;;16.17;4.00;;;;;;;13.08;100.00;100050.63;5041258;28;20488;-81
2023/10/14 04:30:32;;;;;;;12.82;3.95;;;;;;;13.05;100.00;100055.44;5043848;28;20514;-84
2023/10/14 04:33:16;;;;;;;17.27;4.72;;;;;;;13.12;100.00;100066.84;5035532;28;20045;-83
2023/10/14 04:35:57;;;;;;;15.35;4.90;;;;;;;13.16;100.00;100060.25;5051347;28;20071;-83
2023/10/14 04:38:28;;;;;;;18.33;3.92;;;;;;;13.04;100.00;100065.13;5046144;28;20053;-82
2023/10/14 04:40:58;;;;;;;12.00;3.80;;;;;;;13.22;100.00;100076.06;5044253;28;20053;-83
2023/10/14 04:43:49;;;;;;;13.80;3.70;;;;;;;13.17;100.00;100080.25;5045827;28;20045;-82
2023/10/14 04:46:22;;;;;;;11.05;3.80;;;;;;;13.24;100.00;100083.75;5037200;28;20053;-83
2023/10/14 04:48:59;;;;;;;10.73;3.83;;;;;;;13.16;100.00;100078.63;5052139;28;20052;-83
2023/10/14 04:51:34;;;;;;;19.08;3.40;;;;;;;13.28;100.00;100077.94;5050747;28;20130;-83
2023/10/14 04:54:01;;;;;;;19.00;3.70;;;;;;;13.24;100.00;100089.81;5050431;28;20049;-83
2023/10/14 04:56:30;;;;;;;14.95;3.78;;;;;;;13.26;100.00;100103.56;5049949;28;20078;-82
2023/10/14 04:58:57;;;;;;;10.13;4.32;;;;;;;13.15;100.00;100111.94;5051337;28;20045;-84
2023/10/14 05:01:25;;;;;;;17.52;3.80;;;;;;;13.15;100.00;100127.69;5044562;28;20145;-84
2023/10/14 05:03:56;;;;;;;14.48;3.90;;;;;;;13.17;100.00;100130.19;5048267;28;21298;-83
2023/10/14 05:06:22;;;;;;;11.57;4.15;;;;;;;13.04;100.00;100136.03;5047773;28;20547;-83
2023/10/14 05:08:51;;;;;;;13.18;3.88;;;;;;;13.07;100.00;100140.13;5050629;28;20057;-82
2023/10/14 05:11:19;;;;;;;12.43;3.58;;;;;;;13.12;100.00;100151.72;5052750;28;20443;-85
2023/10/14 05:13:53;;;;;;;13.20;3.80;;;;;;;13.14;100.00;100162.03;5043517;28;20053;-83
2023/10/14 05:16:21;;;;;;;16.15;4.00;;;;;;;13.11;100.00;100175.53;5041592;28;20052;-84
2023/10/14 05:19:00;;;;;;;9.38;3.50;;;;;;;13.07;100.00;100174.25;5040315;28;20053;-84
2023/10/14 05:21:36;;;;;;;16.08;4.10;;;;;;;13.05;100.00;100178.88;5048982;28;20053;-83
2023/10/14 05:24:05;;;;;;;13.73;3.80;;;;;;;12.80;100.00;100176.53;5032103;28;20050;-81
2023/10/14 05:26:36;;;;;;;11.63;3.97;;;;;;;12.87;100.00;100193.19;5047094;28;20049;-82
2023/10/14 05:29:11;;;;;;;11.40;3.72;;;;;;;12.77;100.00;100197.09;5035820;28;20507;-83
2023/10/14 05:31:37;;;;;;;13.05;4.28;;;;;;;12.59;100.00;100200.06;5038510;28;20160;-83
2023/10/14 05:34:05;;;;;;;13.07;3.70;;;;;;;12.58;100.00;100204.50;5042739;28;20495;-82
2023/10/14 05:36:34;;;;;;;12.20;3.53;;;;;;;12.54;100.00;100212.91;5047656;28;20430;-83
2023/10/14 05:39:02;;;;;;;10.55;3.83;;;;;;;12.43;100.00;100215.97;5038470;28;20084;-83
2023/10/14 05:41:29;;;;;;;12.23;3.75;;;;;;;12.32;100.00;100221.63;5048127;28;20057;-83
2023/10/14 05:43:56;;;;;;;12.30;3.60;;;;;;;12.27;100.00;100237.94;5050412;28;20075;-83
2023/10/14 05:46:22;;;;;;;14.45;4.25;;;;;;;12.24;100.00;100233.84;5039625;28;20046;-84
2023/10/14 05:48:52;;;;;;;21.25;5.05;;;;;;;12.24;100.00;100244.34;5037185;28;20991;-82
2023/10/14 05:51:21;;;;;;;12.65;3.88;;;;;;;12.13;100.00;100252.63;5039538;28;20127;-82
2023/10/14 05:53:48;;;;;;;11.68;4.10;;;;;;;12.08;100.00;100254.13;5033376;28;20046;-84
2023/10/14 05:56:15;;;;;;;15.27;4.68;;;;;;;12.03;100.00;100254.66;5051854;28;20469;-85
2023/10/14 05:58:42;;;;;;;16.67;4.82;;;;;;;12.03;100.00;100262.53;5054883;28;20414;-83
2023/10/14 06:01:10;;;;;;;13.85;4.30;;;;;;;12.01;100.00;100267.13;5051100;28;20045;-82
2023/10/14 06:03:37;;;;;;;15.50;4.03;;;;;;;11.99;100.00;100281.41;5051949;28;20396;-83
2023/10/14 06:06:09;;;;;;;12.38;4.45;;;;;;;11.93;100.00;100278.47;5044790;28;20470;-82
2023/10/14 06:08:37;;;;;;;21.80;4.70;;;;;;;11.87;100.00;100287.03;5052942;28;20045;-84
2023/10/14 06:11:07;;;;;;;19.80;4.20;;;;;;;11.80;100.00;100291.34;5043205;28;20049;-83
2023/10/14 06:13:35;;;;;;;14.77;4.30;;;;;;;11.84;100.00;100305.72;5048775;28;20098;-83
2023/10/14 06:16:04;;;;;;;19.08;4.65;;;;;;;11.78;100.00;100316.09;5047500;28;20107;-84
2023/10/14 06:18:31;;;;;;;14.25;4.40;;;;;;;11.80;100.00;100314.13;5055712;28;20109;-82
2023/10/14 06:21:00;;;;;;;17.88;4.18;;;;;;;11.78;100.00;100306.44;5058490;28;20052;-83
2023/10/14 06:23:27;;;;;;;17.85;4.38;;;;;;;11.87;100.00;100322.91;5052634;28;20073;-82
2023/10/14 06:25:55;;;;;;;;;;;;;;;11.98;100.00;100327.78;5054549;28;19921;-82
2023/10/14 06:28:21;;;;;;;16.00;4.30;;;;;;;12.07;100.00;100345.09;5044430;28;19921;-82
2023/10/14 06:30:48;;;;;;;17.83;5.72;;;;;;;12.15;100.00;100339.00;5051111;28;20156;-82
2023/10/14 06:33:14;;;;;;;16.60;4.00;;;;;;;12.27;100.00;100338.44;5049030;28;20053;-83
2023/10/14 06:35:43;;;;;;;17.98;4.47;;;;;;;12.39;100.00;100340.63;5051955;28;20049;-84
2023/10/14 06:38:10;;;;;;;11.35;4.60;;;;;;;12.49;100.00;100325.47;5049662;28;20045;-84
2023/10/14 06:40:37;;;;;;;17.83;5.25;;;;;;;12.72;100.00;100322.84;5040624;28;20045;-85
2023/10/14 06:43:08;;;;;;;17.67;4.28;;;;;;;12.74;100.00;100324.31;5050322;28;20076;-85
2023/10/14 06:45:36;;;;;;;12.25;4.65;;;;;;;12.95;100.00;100323.59;5050435;28;20087;-85
2023/10/14 06:48:04;;;;;;;20.25;5.78;;;;;;;13.06;99.30;100322.34;5051029;28;20069;-85
2023/10/14 06:50:32;;;;;;;17.27;4.22;;;;;;;13.09;97.51;100322.00;5047282;28;20615;-84
2023/10/14 06:53:00;;;;;;;12.35;3.92;;;;;;;13.15;96.69;100321.28;5045642;28;20041;-84
2023/10/14 06:55:27;;;;;;;21.58;4.60;;;;;;;13.27;95.50;100325.91;5045364;28;20068;-84
2023/10/14 06:57:55;;;;;;;21.63;4.22;;;;;;;13.11;95.34;100333.97;5044233;28;20042;-83
2023/10/14 07:00:32;;;;;;;14.23;3.92;;;;;;;12.92;95.47;100343.16;5042486;28;20399;-82
2023/10/14 07:03:00;;;;;;;15.75;4.07;;;;;;;13.12;95.29;100347.91;5038461;28;20064;-82
2023/10/14 07:05:28;;;;;;;12.95;3.80;;;;;;;13.33;95.10;100355.91;5045612;28;20060;-83
2023/10/14 07:07:57;;;;;;;17.55;4.32;;;;;;;13.68;93.92;100356.22;5042447;28;20489;-83
2023/10/14 07:10:27;;;;;;;14.65;4.93;;;;;;;13.84;93.08;100340.22;5052784;28;20056;-83
2023/10/14 07:12:57;;;;;;;14.48;4.65;;;;;;;13.67;91.83;100354.56;5045036;28;20045;-84
2023/10/14 07:15:26;;;;;;;17.67;4.25;;;;;;;13.68;91.64;100364.91;5047319;28;20070;-84
2023/10/14 07:17:54;;;;;;;14.07;5.13;;;;;;;13.84;91.16;100358.63;5046927;28;20108;-84
2023/10/14 07:20:22;;;;;;;16.15;4.32;;;;;;;13.81;91.13;100359.81;5043778;28;20068;-83
2023/10/14 07:22:51;;;;;;;14.82;4.43;;;;;;;13.86;91.26;100373.22;5046854;28;20053;-83
2023/10/14 07:25:19;;;;;;;16.45;4.72;;;;;;;14.30;90.67;100377.56;5055187;28;20052;-83
2023/10/14 07:27:51;;;;;;;9.57;3.72;;;;;;;14.16;89.63;100371.38;5055625;28;20059;-84
2023/10/14 07:30:26;;;;;;;16.95;6.05;;;;;;;13.89;89.45;100370.22;5055673;28;20079;-83
2023/10/14 07:32:58;;;;;;;16.70;4.82;;;;;;;14.10;88.54;100373.91;5054367;28;20148;-83
2023/10/14 07:35:27;;;;;;;11.80;4.15;;;;;;;14.17;88.92;100391.41;5037737;28;20156;-83
2023/10/14 07:37:58;;;;;;;16.13;4.45;;;;;;;13.94;88.67;100391.53;5051794;28;20123;-82
2023/10/14 07:40:27;;;;;;;17.80;4.53;;;;;;;13.94;90.00;100407.31;5043020;28;20113;-83
2023/10/14 07:42:54;;;;;;;14.27;4.00;;;;;;;14.00;89.25;100400.50;5054148;28;20083;-83
2023/10/14 07:45:28;;;;;;;15.50;4.85;;;;;;;13.90;88.15;100397.34;5055328;28;20117;-83
2023/10/14 07:48:00;;;;;;;14.73;4.68;;;;;;;13.89;88.51;100403.59;5046270;28;20128;-84
2023/10/14 07:50:31;;;;;;;12.65;5.68;;;;;;;13.95;88.97;100424.72;5054379;28;20160;-84
2023/10/14 07:53:07;;;;;;;12.70;3.78;;;;;;;13.89;88.56;100419.38;5038220;28;20502;-83
2023/10/14 07:55:35;;;;;;;15.18;4.55;;;;;;;14.17;88.57;100428.25;5046224;28;20104;-84
2023/10/14 07:58:03;;;;;;;13.30;5.22;;;;;;;14.19;88.80;100442.00;5041781;28;20053;-86
2023/10/14 08:00:37;;;;;;;13.48;4.70;;;;;;;13.78;88.96;100454.84;5050760;28;20049;-86
2023/10/14 08:03:07;;;;;;;12.75;4.07;;;;;;;13.74;88.63;100437.78;5036379;28;20454;-84
2023/10/14 08:05:35;;;;;;;17.40;4.63;;;;;;;14.10;88.01;100447.59;5050726;28;20080;-86
2023/10/14 08:08:06;;;;;;;14.00;4.97;;;;;;;13.88;89.01;100455.38;5043161;28;20052;-86
2023/10/14 08:10:34;;;;;;;16.30;4.40;;;;;;;13.80;88.34;100457.28;5035468;28;20042;-85
2023/10/14 08:13:04;;;;;;;12.25;4.30;;;;;;;13.73;89.03;100461.63;5045282;28;20136;-84
2023/10/14 08:15:31;;;;;;;20.75;5.93;;;;;;;13.76;90.32;100483.13;5043532;28;20049;-85
2023/10/14 08:18:00;;;;;;;14.27;4.25;;;;;;;14.05;90.20;100492.84;5049268;28;20075;-84
2023/10/14 08:20:30;;;;;;;19.75;4.57;;;;;;;13.90;89.33;100478.88;5054867;28;20443;-85
2023/10/14 08:22:58;;;;;;;15.75;4.40;;;;;;;13.91;90.12;100493.66;5051111;28;20496;-83
2023/10/14 08:25:26;;;;;;;17.45;4.55;;;;;;;14.02;90.84;100495.03;5051516;28;20489;-84
2023/10/14 08:27:53;;;;;;;15.00;5.70;;;;;;;14.11;90.65;100494.75;5052354;28;20060;-86
2023/10/14 08:30:24;;;;;;;16.30;4.40;;;;;;;13.58;89.54;100485.31;5041218;28;20085;-86
2023/10/14 08:32:52;;;;;;;17.98;4.60;;;;;;;13.31;90.73;100506.88;5041495;28;20351;-84
2023/10/14 08:35:20;;;;;;;17.17;5.00;;;;;;;13.10;90.11;100507.53;5051754;28;20077;-83
2023/10/14 08:37:50;;;;;;;17.27;4.65;;;;;;;13.12;91.53;100519.50;5063366;28;20096;-86
2023/10/14 08:40:19;;;;;;;16.55;4.45;;;;;;;13.13;91.43;100517.69;5056448;28;20081;-85
2023/10/14 08:42:51;;;;;;;18.52;4.93;;;;;;;13.17;90.88;100516.38;5058219;28;20083;-84
2023/10/14 08:45:21;;;;;;;16.65;4.60;;;;;;;12.93;90.96;100517.31;5046034;28;20056;-87
2023/10/14 08:47:51;;;;;;;14.18;4.95;;;;;;;12.98;91.64;100540.44;5063859;28;20045;-84
2023/10/14 08:50:19;;;;;;;20.10;4.50;;;;;;;13.12;91.80;100527.38;5047684;28;20067;-85
2023/10/14 08:52:49;;;;;;;16.90;4.30;;;;;;;13.12;91.11;100524.75;5051524;28;20104;-85
2023/10/14 08:55:18;;;;;;;12.50;4.43;;;;;;;13.34;90.88;100536.25;5050019;28;20042;-84
2023/10/14 08:57:45;;;;;;;20.13;4.60;;;;;;;13.03;90.16;100532.84;5042548;28;20063;-82
2023/10/14 09:00:18;;;;;;;17.98;5.13;;;;;;;12.95;89.79;100531.91;5028294;28;20069;-83
2023/10/14 09:02:48;;;;;;;12.98;4.97;;;;;;;13.00;90.04;100549.78;5046721;28;20109;-84
2023/10/14 09:05:16;;;;;;;18.50;4.57;;;;;;;13.10;89.79;100533.78;5040935;28;20133;-82
2023/10/14 09:07:43;;;;;;;18.58;5.40;;;;;;;13.25;89.33;100540.75;5049045;28;20519;-83
2023/10/14 09:10:12;;;;;;;12.77;4.80;;;;;;;13.46;89.70;100555.06;5046918;28;20059;-86
2023/10/14 09:12:39;;;;;;;16.20;4.57;;;;;;;13.63;88.64;100542.59;5052815;28;20104;-85
2023/10/14 09:15:07;;;;;;;16.58;4.32;;;;;;;13.74;87.45;100536.91;5049512;28;20115;-83
2023/10/14 09:17:35;;;;;;;16.95;4.70;;;;;;;13.79;87.54;100545.88;5055161;28;20110;-82
2023/10/14 09:20:02;;;;;;;17.88;5.10;;;;;;;13.61;86.92;100540.97;5046190;28;20049;-82
2023/10/14 09:22:33;;;;;;;18.50;4.35;;;;;;;13.28;86.86;100547.47;5036577;28;20131;-82
2023/10/14 09:25:00;;;;;;;14.77;4.22;;;;;;;13.14;88.06;100556.09;5039942;28;20053;-83
2023/10/14 09:27:30;;;;;;;18.52;5.35;;;;;;;13.05;88.34;100562.38;5055210;28;20069;-81
2023/10/14 09:29:57;;;;;;;13.95;4.50;;;;;;;13.03;87.62;100559.13;5051911;28;20053;-81
2023/10/14 09:32:23;;;;;;;15.00;3.65;;;;;;;13.04;87.99;100571.25;5049783;28;20075;-84
2023/10/14 09:34:51;;;;;;;17.30;4.32;;;;;;;12.86;89.44;100569.69;5046097;28;20080;-85
2023/10/14 09:37:17;;;;;;;16.80;4.22;;;;;;;12.91;89.51;100577.06;5048469;28;20057;-84
2023/10/14 09:39:49;;;;;;;15.15;4.75;;;;;;;12.92;88.90;100566.38;5051669;28;20046;-82
2023/10/14 09:42:17;;;;;;;13.50;4.50;;;;;;;12.95;88.77;100573.09;5049258;28;20053;-84
2023/10/14 09:44:48;;;;;;;15.65;3.95;;;;;;;12.85;88.17;100557.56;5053892;28;20061;-83
2023/10/14 09:47:19;;;;;;;11.27;4.38;;;;;;;12.91;87.52;100556.88;5051221;28;20085;-83
2023/10/14 09:49:48;;;;;;;9.75;3.72;;;;;;;13.02;86.13;100557.47;5044734;28;20049;-84
2023/10/14 09:52:18;;;;;;;12.35;4.13;;;;;;;13.16;85.03;100541.00;5054546;28;20100;-83
2023/10/14 09:54:49;;;;;;;14.13;4.43;;;;;;;13.42;85.01;100559.84;5052784;28;20090;-83
2023/10/14 09:57:17;;;;;;;16.60;4.38;;;;;;;13.40;84.28;100551.31;5051135;28;20057;-82
2023/10/14 09:59:47;;;;;;;14.00;3.85;;;;;;;13.55;84.13;100561.88;5044848;28;20105;-83
2023/10/14 10:02:16;;;;;;;16.42;4.80;;;;;;;13.53;83.67;100546.28;5056055;28;20052;-82
2023/10/14 10:10:10;;;;;;;14.55;4.15;;;;;;;13.97;80.68;100556.06;5042074;28;20056;-78
2023/10/14 10:12:38;;;;;;;13.32;4.00;;;;;;;14.12;80.58;100554.28;5036851;28;20052;-78
2023/10/14 10:15:08;;;;;;;15.50;4.85;;;;;;;13.98;80.43;100539.31;5036115;28;20049;-79
2023/10/14 10:17:35;;;;;;;17.75;4.43;;;;;;;14.11;81.52;100570.25;5047393;28;20135;-79
2023/10/14 10:20:13;;;;;;;14.13;4.57;;;;;;;14.24;81.69;100575.69;5040331;28;20124;-79
2023/10/14 10:22:43;;;;;;;19.00;4.03;;;;;;;14.38;80.47;100571.44;5037530;28;20061;-79
2023/10/14 10:25:14;;;;;;;17.83;4.65;;;;;;;14.38;78.69;100545.91;5036093;28;20428;-79
2023/10/14 10:27:41;;;;;;;14.45;4.03;;;;;;;14.22;77.97;100549.53;5045368;28;20095;-79
2023/10/14 10:30:13;;;;;;;13.80;3.70;;;;;;;14.19;77.25;100547.28;5035696;28;20053;-78
2023/10/14 10:32:42;;;;;;;13.32;3.83;;;;;;;14.19;76.20;100547.28;5040556;28;20497;-79
2023/10/14 10:35:13;;;;;;;15.75;3.90;;;;;;;14.36;76.04;100541.84;5040899;28;20085;-78
2023/10/14 10:37:42;;;;;;;13.25;3.70;;;;;;;14.34;76.18;100554.34;5045834;28;20084;-78
2023/10/14 10:40:11;;;;;;;12.10;3.85;;;;;;;14.52;76.15;100552.22;5040818;28;20048;-78
2023/10/14 10:42:38;;;;;;;18.52;4.88;;;;;;;14.80;76.30;100562.88;5037434;28;20499;-78
2023/10/14 10:45:10;;;;;;;14.15;3.70;;;;;;;14.66;75.92;100567.16;5038893;28;20113;-79
2023/10/14 10:47:46;;;;;;;10.88;3.67;;;;;;;14.50;75.93;100560.28;5034650;28;20053;-78
2023/10/14 10:50:16;;;;;;;11.82;3.70;;;;;;;14.45;75.59;100559.19;5035139;28;20477;-79
2023/10/14 10:52:46;;;;;;;12.65;4.15;;;;;;;14.38;75.46;100561.72;5035266;28;20088;-79
2023/10/14 10:55:20;;;;;;;11.63;3.20;;;;;;;14.49;76.18;100571.00;5036481;28;20056;-79
2023/10/14 10:57:47;;;;;;;10.15;3.97;;;;;;;14.59;76.79;100575.00;5036908;28;20049;-78
2023/10/14 11:00:17;;;;;;;8.63;3.30;;;;;;;14.42;76.98;100578.00;5035859;28;20045;-78
2023/10/14 11:02:45;;;;;;;11.02;3.42;;;;;;;14.21;76.22;100562.88;5035762;28;20049;-78
2023/10/14 11:05:12;;;;;;;13.82;3.58;;;;;;;14.19;76.00;100570.97;5035695;28;20046;-78
2023/10/14 11:07:39;;;;;;;16.58;4.03;;;;;;;14.21;76.89;100571.59;5035422;28;20050;-78
2023/10/14 11:10:06;;;;;;;16.08;3.90;;;;;;;14.24;76.81;100579.13;5035912;28;20067;-78
2023/10/14 11:12:35;;;;;;;14.73;3.78;;;;;;;14.21;76.62;100584.75;5035392;28;20128;-78
2023/10/14 11:15:07;;;;;;;11.93;4.00;;;;;;;14.16;77.12;100594.22;5030349;28;20050;-79
2023/10/14 11:17:41;;;;;;;13.48;3.72;;;;;;;13.99;77.13;100588.28;5037473;28;20527;-78
2023/10/14 11:20:09;;;;;;;10.20;4.18;;;;;;;13.84;76.51;100587.44;5038722;28;20108;-79
2023/10/14 11:22:36;;;;;;;14.75;4.22;;;;;;;13.83;76.42;100588.44;5038053;28;20409;-79
2023/10/14 11:25:05;;;;;;;11.68;3.60;;;;;;;13.90;76.09;100578.84;5038182;28;20080;-78
2023/10/14 11:27:31;;;;;;;10.45;3.17;;;;;;;14.22;76.02;100586.38;5039603;28;20049;-79
2023/10/14 11:29:58;;;;;;;12.07;3.60;;;;;;;14.35;76.03;100577.88;5037950;28;20073;-78
2023/10/14 11:32:25;;;;;;;10.55;3.30;;;;;;;14.58;75.79;100577.81;5037371;28;20128;-77
2023/10/14 11:34:53;;;;;;;14.70;3.50;;;;;;;14.60;74.74;100574.00;5036027;28;20095;-80
2023/10/14 11:37:19;;;;;;;13.68;3.67;;;;;;;14.68;74.99;100572.25;5035037;28;20054;-78